aviador You're here:

KHKS Decoded Metar

JACKSON/HAWKINS in MS, USA
Report Time2017-11-25 04:53:00
UTC Time2017-11-25 05:34:03
Flight Rules vfr VFR
WindCalm
Visibility9999 m
Phenomena:N/A
Clouds:N/A
Expected CloudBase > 1,600 ft AGL from Temp-Dew spread
CeilingNone
Temp06°C (ISA -8)
Dew Point02°C (76% RH)
AAT4.3°C
QNH1015 hPa
Density Alt-617 ft
Elevation354 ft
Report Wrong Elevation
Raw Report
KHKS 250453Z AUTO 00000KT 10SM CLR 06/02 A2998 RMK AO2 SLP148
T00560022=

Extra information for KHKS:More info

Metar Taf Metar & Taf Last 4 Metars F.Rules Stats Wind Profile Meteogram Temp Stats Airport Information Weather charts Add Link Nearby VenuesMetar ALERT Operation Metar Decoded Social comments

AIRNAV info for KHKS